createdAt,value
2022-12-24T00:01:04.493Z,2.42
2022-12-24T00:03:33.168Z,2.15
2022-12-24T00:06:05.046Z,1.65
2022-12-24T00:08:34.816Z,2.30
2022-12-24T00:11:03.021Z,1.65
2022-12-24T00:13:31.250Z,1.52
2022-12-24T00:15:59.426Z,1.85
2022-12-24T00:18:27.721Z,1.88
2022-12-24T00:20:55.924Z,2.05
2022-12-24T00:23:24.202Z,2.40
2022-12-24T00:25:53.785Z,1.83
2022-12-24T00:28:21.975Z,1.88
2022-12-24T00:30:50.194Z,1.80
2022-12-24T00:33:24.247Z,2.10
2022-12-24T00:35:54.198Z,1.90
2022-12-24T00:38:22.386Z,1.42
2022-12-24T00:40:50.545Z,1.40
2022-12-24T00:43:20.133Z,1.58
2022-12-24T00:45:48.642Z,1.45
2022-12-24T00:48:16.823Z,2.03
2022-12-24T00:50:45.061Z,1.60
2022-12-24T00:53:13.269Z,1.60
2022-12-24T00:55:41.455Z,1.42
2022-12-24T00:58:09.668Z,1.60
2022-12-24T01:00:39.463Z,1.27
2022-12-24T01:03:07.777Z,1.80
2022-12-24T01:05:35.026Z,2.03
2022-12-24T01:08:03.224Z,1.17
2022-12-24T01:10:31.444Z,1.75
2022-12-24T01:13:02.905Z,1.13
2022-12-24T01:15:31.423Z,1.73
2022-12-24T01:18:00.970Z,2.05
2022-12-24T01:20:31.719Z,1.48
2022-12-24T01:23:00.377Z,1.67
2022-12-24T01:25:28.698Z,1.88
2022-12-24T01:27:56.904Z,1.40
2022-12-24T01:30:25.586Z,1.27
2022-12-24T01:32:53.778Z,2.15
2022-12-24T01:35:23.413Z,1.77
2022-12-24T01:37:51.597Z,2.03
2022-12-24T01:40:37.256Z,1.80
2022-12-24T01:43:24.816Z,1.63
2022-12-24T01:45:54.284Z,1.60
2022-12-24T01:48:34.481Z,1.60
2022-12-24T01:51:10.251Z,1.63
2022-12-24T01:53:40.546Z,1.60
2022-12-24T01:56:09.203Z,1.50
2022-12-24T01:58:39.095Z,1.50
2022-12-24T02:01:07.969Z,1.80
2022-12-24T02:03:36.633Z,2.15
2022-12-24T02:06:07.161Z,1.70
2022-12-24T02:08:40.962Z,2.20
2022-12-24T02:11:14.449Z,1.70
2022-12-24T02:13:45.374Z,2.15
2022-12-24T02:16:24.360Z,1.85
2022-12-24T02:18:58.430Z,1.50
2022-12-24T02:21:56.369Z,1.80
2022-12-24T02:25:03.736Z,1.88
2022-12-24T02:27:45.292Z,1.48
2022-12-24T02:30:18.700Z,2.20
2022-12-24T02:33:13.011Z,1.98
2022-12-24T02:35:49.336Z,2.30
2022-12-24T02:38:24.031Z,2.00
2022-12-24T02:40:56.910Z,2.00
2022-12-24T02:43:28.035Z,2.25
2022-12-24T02:46:01.090Z,2.37
2022-12-24T02:48:30.649Z,3.45
2022-12-24T02:51:02.452Z,1.90
2022-12-24T02:53:31.174Z,1.80
2022-12-24T02:56:18.576Z,1.42
2022-12-24T02:58:59.130Z,1.52
2022-12-24T03:01:40.074Z,1.55
2022-12-24T03:04:16.560Z,2.40
2022-12-24T03:06:51.538Z,1.63
2022-12-24T03:09:26.586Z,1.63
2022-12-24T03:12:02.123Z,1.30
2022-12-24T03:14:31.479Z,1.80
2022-12-24T03:17:03.047Z,2.00
2022-12-24T03:19:32.772Z,2.53
2022-12-24T03:22:03.608Z,2.55
2022-12-24T03:24:32.005Z,1.52
2022-12-24T03:27:01.791Z,2.03
2022-12-24T03:29:30.159Z,1.48
2022-12-24T03:32:04.101Z,2.15
2022-12-24T03:34:32.531Z,2.17
2022-12-24T03:37:00.878Z,2.13
2022-12-24T03:39:29.103Z,1.92
2022-12-24T03:41:57.381Z,1.80
2022-12-24T03:44:25.568Z,1.85
2022-12-24T03:46:53.767Z,1.85
2022-12-24T03:49:23.358Z,2.20
2022-12-24T03:51:51.532Z,1.52
2022-12-24T03:54:19.912Z,1.75
2022-12-24T03:56:48.092Z,2.92
2022-12-24T03:59:16.266Z,2.08
2022-12-24T04:01:44.550Z,1.73
2022-12-24T04:04:12.850Z,2.03
2022-12-24T04:06:42.452Z,2.47
2022-12-24T04:09:10.629Z,1.73
2022-12-24T04:11:38.813Z,2.85
2022-12-24T04:14:06.972Z,2.22
2022-12-24T04:16:35.225Z,2.15
2022-12-24T04:19:03.414Z,2.20
2022-12-24T04:21:31.577Z,2.35
2022-12-24T04:24:01.711Z,2.05
2022-12-24T04:26:30.030Z,1.85
2022-12-24T04:28:58.226Z,2.20
2022-12-24T04:31:26.537Z,1.92
2022-12-24T04:33:54.855Z,2.13
2022-12-24T04:36:23.519Z,2.47
2022-12-24T04:38:51.777Z,1.88
2022-12-24T04:41:24.633Z,2.65
2022-12-24T04:43:53.876Z,1.77
2022-12-24T04:46:24.153Z,2.05
2022-12-24T04:48:54.332Z,2.17
2022-12-24T04:51:22.728Z,2.65
2022-12-24T04:53:51.187Z,1.90
2022-12-24T04:56:23.305Z,1.75
2022-12-24T04:58:52.362Z,2.47
2022-12-24T05:01:22.732Z,1.75
2022-12-24T05:03:51.846Z,2.30
2022-12-24T05:06:21.542Z,2.08
2022-12-24T05:08:50.003Z,2.20
2022-12-24T05:11:19.981Z,1.63
2022-12-24T05:13:48.456Z,2.38
2022-12-24T05:16:18.823Z,2.00
2022-12-24T05:18:47.397Z,2.08
2022-12-24T05:21:18.088Z,1.90
2022-12-24T05:24:15.428Z,2.00
2022-12-24T05:26:47.510Z,2.58
2022-12-24T05:29:15.947Z,1.88
2022-12-24T05:31:45.173Z,2.40
2022-12-24T05:34:13.998Z,1.80
2022-12-24T05:36:42.519Z,2.13
2022-12-24T05:39:15.929Z,3.03
2022-12-24T05:41:46.375Z,1.80
2022-12-24T05:44:16.353Z,2.58
2022-12-24T05:46:45.363Z,1.92
2022-12-24T05:49:13.747Z,1.95
2022-12-24T05:51:42.121Z,2.45
2022-12-24T05:54:10.833Z,2.33
2022-12-24T05:56:38.996Z,2.25
2022-12-24T05:59:08.540Z,1.83
2022-12-24T06:01:36.835Z,2.03
2022-12-24T06:04:05.410Z,2.60
2022-12-24T06:06:33.757Z,2.53
2022-12-24T06:09:01.948Z,4.10
2022-12-24T06:11:30.230Z,3.10
2022-12-24T06:13:58.461Z,3.55
2022-12-24T06:16:28.203Z,1.73
2022-12-24T06:18:56.512Z,1.63
2022-12-24T06:21:24.676Z,1.50
2022-12-24T06:23:53.043Z,1.27
2022-12-24T06:26:23.815Z,1.75
2022-12-24T06:28:53.040Z,2.33
2022-12-24T06:31:23.645Z,4.68
2022-12-24T06:33:53.934Z,3.17
2022-12-24T06:36:24.063Z,1.35
2022-12-24T06:38:53.359Z,0.85
2022-12-24T06:41:21.799Z,0.80
2022-12-24T06:43:52.032Z,1.52
2022-12-24T06:46:21.109Z,1.10
2022-12-24T06:48:49.752Z,0.90
2022-12-24T06:51:20.561Z,1.13
2022-12-24T06:53:50.577Z,1.13
2022-12-24T06:56:19.084Z,0.93
2022-12-24T06:58:47.826Z,0.60
2022-12-24T07:01:18.006Z,0.80
2022-12-24T07:03:46.456Z,0.93
2022-12-24T07:06:20.381Z,1.40
2022-12-24T07:08:48.570Z,0.73
2022-12-24T07:11:17.509Z,0.90
2022-12-24T07:13:45.860Z,0.90
2022-12-24T07:16:14.249Z,0.90
2022-12-24T07:18:42.498Z,0.75
2022-12-24T07:21:10.943Z,0.90
2022-12-24T07:23:40.610Z,0.80
2022-12-24T07:26:09.031Z,0.90
2022-12-24T07:28:37.267Z,1.50
2022-12-24T07:31:05.604Z,1.35
2022-12-24T07:33:33.929Z,1.10
2022-12-24T07:36:04.120Z,0.80
2022-12-24T07:38:33.445Z,1.30
2022-12-24T07:41:03.315Z,0.95
2022-12-24T07:43:33.895Z,1.33
2022-12-24T07:46:02.342Z,1.02
2022-12-24T07:48:32.008Z,1.65
2022-12-24T07:51:01.012Z,1.60
2022-12-24T07:53:31.942Z,1.58
2022-12-24T07:56:00.270Z,2.00
2022-12-24T07:58:29.916Z,2.03
2022-12-24T08:00:59.339Z,1.65
2022-12-24T08:03:28.118Z,2.45
2022-12-24T08:05:56.534Z,1.85
2022-12-24T08:08:24.819Z,1.83
2022-12-24T08:10:53.126Z,1.85
2022-12-24T08:13:21.589Z,1.63
2022-12-24T08:15:51.227Z,1.65
2022-12-24T08:18:19.414Z,3.03
2022-12-24T08:20:48.026Z,2.08
2022-12-24T08:23:16.273Z,2.13
2022-12-24T08:25:45.361Z,3.65
2022-12-24T08:28:14.116Z,6.10
2022-12-24T08:30:42.711Z,3.55
2022-12-24T08:33:13.153Z,2.65
2022-12-24T08:35:41.405Z,1.75
2022-12-24T08:38:09.576Z,5.55
2022-12-24T08:40:37.806Z,2.78
2022-12-24T08:43:05.986Z,7.20
2022-12-24T08:45:39.913Z,10.32
2022-12-24T08:48:08.695Z,7.68
2022-12-24T08:50:41.378Z,3.22
2022-12-24T08:53:10.369Z,5.38
2022-12-24T08:55:39.661Z,4.07
2022-12-24T08:58:07.886Z,3.33
2022-12-24T09:00:36.148Z,2.97
2022-12-24T09:03:04.416Z,2.22
2022-12-24T09:05:32.910Z,1.83
2022-12-24T09:08:03.099Z,1.80
2022-12-24T09:10:31.393Z,2.30
2022-12-24T09:12:59.616Z,2.67
2022-12-24T09:15:27.823Z,2.15
2022-12-24T09:17:56.054Z,2.35
2022-12-24T09:20:24.576Z,2.70
2022-12-24T09:22:52.778Z,3.40
2022-12-24T09:25:22.334Z,3.05
2022-12-24T09:27:50.742Z,2.67
2022-12-24T09:30:19.198Z,3.40
2022-12-24T09:32:47.352Z,3.95
2022-12-24T09:35:15.576Z,3.53
2022-12-24T09:37:43.762Z,2.90
2022-12-24T09:40:26.222Z,3.92
2022-12-24T09:42:55.573Z,4.35
2022-12-24T09:45:29.557Z,3.67
2022-12-24T09:48:02.394Z,3.65
2022-12-24T09:50:40.751Z,2.45
2022-12-24T09:53:17.015Z,2.53
2022-12-24T09:55:49.791Z,2.38
2022-12-24T09:58:24.001Z,2.53
2022-12-24T10:00:53.678Z,2.53
2022-12-24T10:03:21.972Z,4.00
2022-12-24T10:06:02.438Z,2.95
2022-12-24T10:08:35.478Z,2.63
2022-12-24T10:11:13.673Z,3.17
2022-12-24T10:13:55.876Z,1.65
2022-12-24T10:16:31.203Z,2.17
2022-12-24T10:19:06.568Z,2.83
2022-12-24T10:21:43.255Z,2.80
2022-12-24T10:24:18.118Z,1.90
2022-12-24T10:26:52.063Z,2.75
2022-12-24T10:29:24.113Z,2.08
2022-12-24T10:31:57.708Z,2.13
2022-12-24T10:34:31.099Z,3.38
2022-12-24T10:37:00.442Z,2.33
2022-12-24T10:39:28.737Z,2.17
2022-12-24T10:42:00.429Z,2.72
2022-12-24T10:44:31.058Z,2.03
2022-12-24T10:46:59.524Z,4.53
2022-12-24T10:49:34.954Z,3.83
2022-12-24T10:52:06.394Z,2.40
2022-12-24T10:54:39.430Z,2.38
2022-12-24T10:57:26.348Z,1.92
2022-12-24T10:59:56.971Z,2.33
2022-12-24T11:02:30.447Z,1.75
2022-12-24T11:05:00.513Z,2.35
2022-12-24T11:07:30.776Z,1.80
2022-12-24T11:10:00.959Z,1.90
2022-12-24T11:12:33.766Z,2.13
2022-12-24T11:15:04.953Z,1.83
2022-12-24T11:17:33.936Z,1.80
2022-12-24T11:20:03.397Z,2.35
2022-12-24T11:22:32.910Z,1.92
2022-12-24T11:25:05.178Z,1.90
2022-12-24T11:27:41.753Z,2.33
2022-12-24T11:30:23.502Z,1.58
2022-12-24T11:33:08.393Z,1.92
2022-12-24T11:35:42.820Z,1.55
2022-12-24T11:38:13.069Z,2.78
2022-12-24T11:40:42.937Z,1.90
2022-12-24T11:43:18.124Z,2.25
2022-12-24T11:45:51.278Z,2.03
2022-12-24T11:48:28.745Z,1.92
2022-12-24T11:50:58.992Z,2.35
2022-12-24T11:53:34.355Z,2.15
2022-12-24T11:56:10.767Z,1.85
2022-12-24T11:58:47.450Z,2.50
2022-12-24T12:01:21.669Z,2.17
2022-12-24T12:03:52.842Z,2.80
2022-12-24T12:06:38.894Z,3.17
2022-12-24T12:09:12.160Z,2.53
2022-12-24T12:11:43.490Z,2.45
2022-12-24T12:14:20.215Z,2.10
2022-12-24T12:17:03.826Z,2.05
2022-12-24T12:19:38.662Z,2.80
2022-12-24T12:22:12.321Z,2.72
2022-12-24T12:24:47.446Z,1.58
2022-12-24T12:27:23.445Z,1.75
2022-12-24T12:29:58.823Z,2.80
2022-12-24T12:32:32.733Z,3.08
2022-12-24T12:35:06.956Z,2.65
2022-12-24T12:37:39.435Z,2.00
2022-12-24T12:40:15.751Z,2.28
2022-12-24T12:42:49.399Z,2.33
2022-12-24T12:45:34.171Z,2.15
2022-12-24T12:48:20.929Z,1.60
2022-12-24T12:50:54.018Z,2.20
2022-12-24T12:53:40.987Z,1.77
2022-12-24T12:56:21.671Z,2.17
2022-12-24T12:58:54.666Z,2.65
2022-12-24T13:01:37.466Z,2.10
2022-12-24T13:04:55.978Z,2.90
2022-12-24T13:07:47.287Z,1.85
2022-12-24T13:10:37.339Z,2.27
2022-12-24T13:13:29.883Z,3.60
2022-12-24T13:16:24.073Z,3.30
2022-12-24T13:19:05.621Z,4.75
2022-12-24T13:21:34.756Z,3.38
2022-12-24T13:24:08.132Z,2.00
2022-12-24T13:26:36.441Z,2.15
2022-12-24T13:29:32.042Z,2.47
2022-12-24T13:32:33.859Z,1.90
2022-12-24T13:35:05.709Z,2.03
2022-12-24T13:40:18.847Z,1.98
2022-12-24T13:42:52.896Z,2.58
2022-12-24T13:45:43.766Z,2.30
2022-12-24T13:48:23.734Z,2.70
2022-12-24T13:50:55.790Z,2.80
2022-12-24T13:53:30.144Z,2.35
2022-12-24T13:56:04.086Z,2.03
2022-12-24T13:58:32.832Z,2.08
2022-12-24T14:01:04.211Z,2.17
2022-12-24T14:03:35.571Z,2.22
2022-12-24T14:06:09.461Z,2.90
2022-12-24T14:08:41.083Z,2.30
2022-12-24T14:11:14.779Z,2.20
2022-12-24T14:14:12.798Z,2.42
2022-12-24T14:16:48.716Z,2.25
2022-12-24T14:19:21.042Z,2.08
2022-12-24T14:21:57.941Z,2.28
2022-12-24T14:24:28.394Z,4.00
2022-12-24T14:27:01.796Z,3.05
2022-12-24T14:29:33.264Z,5.47
2022-12-24T14:32:04.632Z,3.70
2022-12-24T14:34:33.015Z,2.70
2022-12-24T14:37:05.423Z,3.35
2022-12-24T14:39:36.037Z,2.75
2022-12-24T14:42:18.383Z,1.95
2022-12-24T14:44:57.423Z,2.50
2022-12-24T14:47:35.021Z,2.35
2022-12-24T14:50:24.582Z,1.60
2022-12-24T14:53:07.310Z,3.45
2022-12-24T14:55:42.644Z,2.45
2022-12-24T14:58:25.178Z,1.83
2022-12-24T15:00:55.088Z,2.53
2022-12-24T15:03:25.491Z,2.33
2022-12-24T15:05:56.408Z,1.88
2022-12-24T15:08:30.720Z,2.03
2022-12-24T15:11:02.709Z,2.17
2022-12-24T15:16:06.864Z,1.90
2022-12-24T15:18:37.775Z,2.08
2022-12-24T15:21:08.345Z,2.25
2022-12-24T15:23:45.797Z,1.70
2022-12-24T15:26:21.212Z,2.53
2022-12-24T15:28:49.639Z,2.10
2022-12-24T15:31:20.190Z,2.13
2022-12-24T15:33:49.495Z,2.60
2022-12-24T15:36:24.983Z,2.97
2022-12-24T15:38:57.114Z,1.85
2022-12-24T15:41:27.653Z,1.67
2022-12-24T15:44:00.920Z,1.83
2022-12-24T15:46:30.713Z,2.00
2022-12-24T15:49:01.547Z,1.92
2022-12-24T15:51:33.592Z,2.40
2022-12-24T15:54:13.787Z,2.45
2022-12-24T15:56:44.941Z,2.42
2022-12-24T15:59:22.591Z,1.85
2022-12-24T16:01:51.121Z,2.10
2022-12-24T16:04:25.083Z,2.13
2022-12-24T16:06:57.388Z,2.20
2022-12-24T16:09:34.461Z,3.00
2022-12-24T16:12:03.822Z,2.17
2022-12-24T16:14:33.212Z,2.33
2022-12-24T16:17:01.525Z,2.28
2022-12-24T16:19:39.677Z,3.03
2022-12-24T16:22:22.839Z,5.68
2022-12-24T16:24:55.612Z,12.10
2022-12-24T16:27:24.102Z,12.23
2022-12-24T16:29:52.388Z,10.65
2022-12-24T16:32:31.949Z,5.78
2022-12-24T16:35:00.870Z,5.07
2022-12-24T16:37:29.523Z,3.97
2022-12-24T16:39:59.372Z,3.55
2022-12-24T16:42:45.122Z,3.10
2022-12-24T16:45:13.288Z,2.85
2022-12-24T16:47:43.077Z,4.28
2022-12-24T16:50:16.884Z,4.32
2022-12-24T16:52:45.748Z,3.65
2022-12-24T16:55:16.039Z,3.72
2022-12-24T16:57:45.029Z,3.25
2022-12-24T17:00:18.285Z,3.20
2022-12-24T17:02:47.000Z,3.00
2022-12-24T17:05:16.140Z,2.33
2022-12-24T17:07:44.562Z,2.35
2022-12-24T17:10:15.493Z,2.90
2022-12-24T17:12:44.012Z,2.70
2022-12-24T17:15:12.836Z,2.97
2022-12-24T17:17:41.025Z,2.42
2022-12-24T17:20:10.247Z,10.40
2022-12-24T17:22:38.954Z,7.95
2022-12-24T17:25:08.281Z,4.25
2022-12-24T17:27:37.828Z,2.88
2022-12-24T17:30:07.199Z,2.42
2022-12-24T17:32:37.345Z,2.88
2022-12-24T17:35:05.962Z,2.28
2022-12-24T17:37:34.131Z,2.97
2022-12-24T17:40:02.300Z,2.20
2022-12-24T17:42:30.510Z,2.53
2022-12-24T17:45:00.048Z,3.40
2022-12-24T17:47:28.232Z,2.88
2022-12-24T17:49:56.768Z,3.65
2022-12-24T17:52:24.946Z,3.28
2022-12-24T17:54:54.860Z,2.95
2022-12-24T17:57:23.035Z,4.03
2022-12-24T17:59:51.275Z,4.40
2022-12-24T18:02:21.127Z,5.30
2022-12-24T18:04:49.785Z,4.53
2022-12-24T18:07:18.107Z,3.85
2022-12-24T18:09:46.289Z,2.55
2022-12-24T18:12:14.855Z,3.00
2022-12-24T18:14:43.025Z,2.20
2022-12-24T18:17:11.269Z,2.55
2022-12-24T18:19:40.795Z,2.00
2022-12-24T18:22:08.931Z,2.08
2022-12-24T18:24:37.107Z,3.28
2022-12-24T18:27:05.406Z,2.53
2022-12-24T18:29:33.568Z,2.45
2022-12-24T18:32:01.720Z,2.88
2022-12-24T18:34:29.878Z,2.70
2022-12-24T18:36:59.430Z,2.53
2022-12-24T18:39:27.672Z,2.65
2022-12-24T18:41:55.837Z,2.17
2022-12-24T18:44:25.707Z,2.13
2022-12-24T18:46:54.152Z,2.20
2022-12-24T18:49:22.416Z,2.15
2022-12-24T18:51:50.553Z,3.28
2022-12-24T18:54:20.096Z,2.75
2022-12-24T18:56:50.700Z,3.05
2022-12-24T18:59:19.131Z,4.13
2022-12-24T19:01:47.484Z,4.03
2022-12-24T19:04:15.861Z,3.63
2022-12-24T19:06:50.753Z,3.67
2022-12-24T19:09:22.466Z,3.40
2022-12-24T19:11:50.835Z,3.13
2022-12-24T19:14:20.193Z,4.28
2022-12-24T19:16:48.428Z,3.10
2022-12-24T19:19:18.760Z,3.28
2022-12-24T19:21:46.929Z,2.95
2022-12-24T19:24:15.433Z,2.20
2022-12-24T19:26:45.056Z,2.28
2022-12-24T19:29:13.278Z,1.75
2022-12-24T19:31:44.260Z,1.73
2022-12-24T19:34:12.567Z,1.63
2022-12-24T19:36:40.832Z,1.80
2022-12-24T19:39:09.123Z,2.20
2022-12-24T19:41:37.297Z,2.78
2022-12-24T19:44:07.002Z,6.40
2022-12-24T19:46:36.812Z,6.43
2022-12-24T19:49:07.759Z,5.50
2022-12-24T19:51:36.469Z,3.25
2022-12-24T19:54:06.306Z,3.47
2022-12-24T19:56:34.793Z,3.45
2022-12-24T19:59:04.294Z,4.25
2022-12-24T20:01:36.144Z,4.75
2022-12-24T20:06:35.714Z,4.93
2022-12-24T20:09:06.790Z,5.18
2022-12-24T20:11:36.328Z,4.80
2022-12-24T20:14:06.054Z,4.50
2022-12-24T20:16:36.608Z,5.40
2022-12-24T20:19:07.450Z,5.25
2022-12-24T20:21:37.964Z,6.00
2022-12-24T20:24:06.667Z,7.05
2022-12-24T20:26:35.570Z,6.65
2022-12-24T20:29:05.404Z,5.95
2022-12-24T20:31:36.070Z,6.78
2022-12-24T20:34:07.428Z,5.82
2022-12-24T20:36:37.176Z,5.57
2022-12-24T20:39:06.169Z,5.65
2022-12-24T20:41:34.738Z,6.78
2022-12-24T20:44:04.581Z,6.75
2022-12-24T20:46:35.526Z,6.70
2022-12-24T20:49:03.898Z,6.85
2022-12-24T20:51:32.180Z,7.75
2022-12-24T20:54:01.541Z,9.10
2022-12-24T20:56:30.847Z,8.02
2022-12-24T20:59:01.017Z,7.45
2022-12-24T21:01:29.863Z,7.68
2022-12-24T21:04:04.615Z,9.57
2022-12-24T21:06:33.641Z,9.07
2022-12-24T21:09:02.749Z,10.18
2022-12-24T21:11:48.417Z,11.52
2022-12-24T21:14:17.456Z,11.48
2022-12-24T21:16:46.468Z,11.75
2022-12-24T21:19:18.539Z,10.88
2022-12-24T21:24:15.767Z,12.15
2022-12-24T21:26:43.925Z,12.82
2022-12-24T21:29:12.699Z,10.57
2022-12-24T21:31:40.868Z,10.05
2022-12-24T21:34:09.314Z,9.23
2022-12-24T21:36:38.869Z,9.80
2022-12-24T21:39:07.009Z,8.77
2022-12-24T21:41:35.223Z,10.10
2022-12-24T21:44:03.406Z,9.82
2022-12-24T21:46:31.758Z,11.02
2022-12-24T21:49:17.363Z,10.63
2022-12-24T21:51:48.952Z,11.00
2022-12-24T21:54:30.741Z,9.20
2022-12-24T21:57:18.771Z,11.60
2022-12-24T21:59:47.754Z,12.65
2022-12-24T22:02:17.265Z,11.45
2022-12-24T22:04:46.106Z,10.73
2022-12-24T22:07:40.237Z,11.15
2022-12-24T22:10:29.226Z,10.32
2022-12-24T22:12:59.716Z,9.85
2022-12-24T22:15:28.323Z,9.50
2022-12-24T22:17:56.594Z,9.13
2022-12-24T22:20:24.920Z,9.40
2022-12-24T22:22:54.458Z,9.32
2022-12-24T22:25:22.603Z,9.35
2022-12-24T22:27:50.949Z,9.57
2022-12-24T22:30:19.269Z,9.95
2022-12-24T22:32:47.504Z,10.45
2022-12-24T22:35:15.790Z,9.48
2022-12-24T22:37:43.952Z,10.25
2022-12-24T22:40:14.617Z,9.75
2022-12-24T22:42:42.804Z,9.27
2022-12-24T22:45:15.767Z,9.73
2022-12-24T22:47:46.708Z,9.65
2022-12-24T22:50:14.883Z,10.82
2022-12-24T22:52:43.282Z,9.85
2022-12-24T22:55:11.638Z,9.70
2022-12-24T22:57:41.166Z,9.55
2022-12-24T23:00:14.211Z,9.23
2022-12-24T23:02:42.641Z,9.00
2022-12-24T23:05:14.828Z,8.10
2022-12-24T23:07:43.149Z,8.70
2022-12-24T23:10:11.569Z,8.85
2022-12-24T23:12:58.670Z,7.68
2022-12-24T23:15:26.879Z,8.40
2022-12-24T23:17:55.070Z,8.20
2022-12-24T23:20:23.240Z,8.00
2022-12-24T23:22:51.399Z,8.30
2022-12-24T23:25:20.505Z,8.60
2022-12-24T23:27:50.238Z,7.50
2022-12-24T23:30:18.487Z,7.88
2022-12-24T23:32:46.664Z,8.35
2022-12-24T23:35:14.810Z,7.05
2022-12-24T23:37:42.937Z,7.85
2022-12-24T23:40:11.977Z,7.30
2022-12-24T23:42:40.162Z,7.00
2022-12-24T23:45:10.708Z,7.65
2022-12-24T23:47:38.943Z,8.13
2022-12-24T23:50:08.526Z,7.60
2022-12-24T23:52:36.685Z,7.95
2022-12-24T23:55:06.293Z,8.50
2022-12-24T23:57:34.465Z,9.10
